Time;durP1;ratioP1;P1;durP2;ratioP2;P2;SDS_P1;SDS_P2;PMS_P1;PMS_P2;Temp;Humidity;BMP_temperature;BMP_pressure;BME280_temperature;BME280_humidity;BME280_pressure;Samples;Min_cycle;Max_cycle;Signal;HPM_P1;HPM_P2
2022/05/11 00:00:38;;;;;;;3.30;1.20;;;20.80;75.60;;;;;;6277323;22;20149;-90
2022/05/11 00:03:05;;;;;;;5.33;1.33;;;20.80;75.80;;;;;;6277324;22;20209;-90
2022/05/11 00:05:32;;;;;;;2.40;1.17;;;20.80;76.20;;;;;;6277247;22;20155;-90
2022/05/11 00:07:58;;;;;;;3.53;1.13;;;20.60;76.50;;;;;;6277323;22;20239;-90
2022/05/11 00:10:24;;;;;;;2.63;0.80;;;20.50;76.90;;;;;;6277606;22;20180;-90
2022/05/11 00:12:51;;;;;;;1.90;1.00;;;20.60;77.10;;;;;;6277077;22;20161;-90
2022/05/11 00:15:20;;;;;;;1.47;0.90;;;20.70;77.10;;;;;;6276996;22;20489;-90
2022/05/11 00:17:46;;;;;;;2.57;0.90;;;20.80;77.00;;;;;;6277389;22;20145;-90
2022/05/11 00:20:14;;;;;;;2.53;1.00;;;20.80;77.30;;;;;;6276547;22;20197;-90
2022/05/11 00:22:41;;;;;;;2.47;1.10;;;20.80;77.40;;;;;;6277003;22;20174;-90
2022/05/11 00:25:08;;;;;;;2.50;1.33;;;20.80;77.40;;;;;;6277087;22;20364;-90
2022/05/11 00:27:34;;;;;;;0.97;0.87;;;20.70;78.10;;;;;;6277440;22;20166;-90
2022/05/11 00:30:00;;;;;;;2.17;1.20;;;20.60;78.40;;;;;;6277333;22;20592;-90
2022/05/11 00:32:26;;;;;;;2.60;1.00;;;20.70;78.60;;;;;;6277459;22;20190;-90
2022/05/11 00:34:52;;;;;;;2.30;1.00;;;20.60;78.90;;;;;;6277366;22;20149;-90
2022/05/11 00:37:18;;;;;;;1.83;1.00;;;20.50;79.30;;;;;;6277700;22;20565;-90
2022/05/11 00:39:45;;;;;;;3.07;1.20;;;20.40;80.10;;;;;;6277963;22;20609;-90
2022/05/11 00:42:10;;;;;;;2.47;1.13;;;20.30;80.30;;;;;;6278054;22;20144;-91
2022/05/11 00:44:36;;;;;;;2.50;1.00;;;20.30;80.60;;;;;;6279142;22;20229;-91
2022/05/11 00:47:24;;;;;;;3.97;1.17;;;20.20;81.10;;;;;;6278718;22;20235;-90
2022/05/11 00:49:57;;;;;;;1.87;1.10;;;20.30;80.40;;;;;;6277537;22;20252;-90
2022/05/11 00:52:44;;;;;;;2.47;1.00;;;20.40;80.00;;;;;;6278883;22;20232;-88
2022/05/11 00:55:32;;;;;;;3.50;1.10;;;20.40;79.80;;;;;;6281276;22;20148;-90
2022/05/11 00:58:19;;;;;;;5.23;1.10;;;20.30;79.60;;;;;;6286613;22;20235;-90
2022/05/11 01:00:46;;;;;;;3.10;1.07;;;20.30;79.60;;;;;;6283138;22;20143;-89
2022/05/11 01:03:19;;;;;;;2.13;1.40;;;20.20;79.60;;;;;;6286485;22;20220;-91
2022/05/11 01:05:46;;;;;;;2.70;0.80;;;20.20;79.90;;;;;;6286712;22;20153;-91
2022/05/11 01:08:13;;;;;;;5.00;1.00;;;20.30;78.90;;;;;;6277447;22;20154;-90
2022/05/11 01:10:41;;;;;;;2.50;1.07;;;20.20;78.90;;;;;;6276426;22;20569;-91
2022/05/11 01:13:09;;;;;;;2.47;0.80;;;20.30;78.30;;;;;;6277282;22;20153;-90
2022/05/11 01:15:37;;;;;;;1.93;0.93;;;20.50;77.90;;;;;;6276180;22;20150;-90
2022/05/11 01:18:05;;;;;;;2.20;1.00;;;20.60;77.00;;;;;;6276630;22;20140;-90
2022/05/11 01:20:33;;;;;;;1.10;0.70;;;20.50;77.50;;;;;;6276533;22;20215;-90
2022/05/11 01:23:24;;;;;;;1.10;0.70;;;20.50;77.70;;;;;;6276588;22;20181;-90
2022/05/11 01:25:50;;;;;;;2.47;1.27;;;20.50;77.90;;;;;;6276202;22;20156;-89
2022/05/11 01:28:17;;;;;;;1.73;0.90;;;20.50;78.10;;;;;;6276296;22;20250;-90
2022/05/11 01:30:48;;;;;;;2.50;1.30;;;20.60;77.80;;;;;;6276661;22;20148;-90
2022/05/11 01:33:18;;;;;;;2.60;1.17;;;20.60;77.90;;;;;;6276698;22;20149;-90
2022/05/11 01:36:05;;;;;;;2.33;1.00;;;20.50;78.30;;;;;;6276396;22;20232;-90
2022/05/11 01:38:45;;;;;;;2.83;1.20;;;20.60;78.90;;;;;;6276149;22;20578;-90
2022/05/11 01:41:29;;;;;;;1.90;1.30;;;20.50;78.90;;;;;;6276030;22;20595;-90
2022/05/11 01:43:54;;;;;;;2.57;1.70;;;20.40;79.50;;;;;;6276018;22;20185;-90
2022/05/11 01:46:20;;;;;;;2.10;1.60;;;20.50;79.70;;;;;;6276556;22;20615;-90
2022/05/11 01:48:46;;;;;;;3.30;1.63;;;20.50;79.90;;;;;;6276109;22;20599;-90
2022/05/11 01:51:15;;;;;;;2.57;1.40;;;20.20;80.80;;;;;;6276150;22;20152;-88
2022/05/11 01:53:41;;;;;;;5.90;1.43;;;20.10;81.40;;;;;;6276475;22;20151;-90
2022/05/11 01:56:09;;;;;;;2.73;1.53;;;20.10;81.70;;;;;;6276114;22;20594;-90
2022/05/11 01:58:36;;;;;;;1.77;1.20;;;20.10;81.90;;;;;;6276675;22;20149;-90
2022/05/11 02:01:04;;;;;;;6.10;1.73;;;20.00;82.30;;;;;;6275834;22;20145;-90
2022/05/11 02:03:29;;;;;;;1.77;1.40;;;20.00;82.40;;;;;;6276493;22;20207;-89
2022/05/11 02:08:44;;;;;;;3.03;1.50;;;20.00;82.80;;;;;;6277409;22;20206;-90
2022/05/11 02:11:12;;;;;;;2.57;1.47;;;20.00;82.40;;;;;;6276474;22;20152;-90
2022/05/11 02:13:39;;;;;;;4.60;1.30;;;20.00;81.80;;;;;;6276079;22;20148;-90
2022/05/11 02:16:05;;;;;;;4.33;1.53;;;20.00;81.10;;;;;;6276540;22;20149;-90
2022/05/11 02:18:31;;;;;;;2.13;1.23;;;20.00;81.40;;;;;;6276720;22;20161;-90
2022/05/11 02:20:58;;;;;;;2.33;1.30;;;20.00;81.10;;;;;;6276676;22;20162;-90
2022/05/11 02:23:24;;;;;;;3.40;1.50;;;20.10;81.10;;;;;;6276121;22;20184;-90
2022/05/11 02:25:51;;;;;;;1.73;1.13;;;20.10;80.50;;;;;;6276005;22;20153;-90
2022/05/11 02:28:19;;;;;;;3.50;1.87;;;20.10;79.10;;;;;;6275367;22;20163;-90
2022/05/11 02:30:46;;;;;;;5.73;1.17;;;20.10;79.40;;;;;;6276344;22;20470;-89
2022/05/11 02:33:13;;;;;;;1.90;1.10;;;20.20;79.30;;;;;;6275360;22;20170;-90
2022/05/11 02:35:39;;;;;;;2.23;1.20;;;20.20;79.20;;;;;;6276371;22;20149;-90
2022/05/11 02:38:11;;;;;;;4.23;1.10;;;20.20;79.20;;;;;;6275911;22;20209;-90
2022/05/11 02:40:39;;;;;;;2.00;1.40;;;20.10;79.40;;;;;;6276073;22;20154;-90
2022/05/11 02:43:05;;;;;;;3.83;1.07;;;20.10;79.80;;;;;;6275503;22;20608;-91
2022/05/11 02:45:33;;;;;;;1.63;1.30;;;20.00;80.10;;;;;;6276061;22;20231;-90
2022/05/11 02:48:01;;;;;;;2.80;1.20;;;20.00;80.20;;;;;;6276045;22;20144;-90
2022/05/11 02:50:31;;;;;;;3.70;1.40;;;19.90;80.70;;;;;;6275562;22;20643;-90
2022/05/11 02:52:57;;;;;;;4.13;1.77;;;19.90;81.20;;;;;;6275963;22;20152;-90
2022/05/11 02:55:23;;;;;;;2.47;1.40;;;19.80;81.80;;;;;;6276195;22;20146;-90
2022/05/11 02:57:49;;;;;;;3.90;1.73;;;19.70;82.50;;;;;;6275590;22;20146;-90
2022/05/11 03:00:18;;;;;;;3.83;1.90;;;19.60;83.00;;;;;;6277012;22;20410;-90
2022/05/11 03:02:45;;;;;;;2.20;1.60;;;19.50;83.50;;;;;;6277486;22;20202;-90
2022/05/11 03:05:12;;;;;;;4.27;1.40;;;19.40;84.50;;;;;;6278165;22;20216;-90
2022/05/11 03:07:39;;;;;;;2.53;1.70;;;19.20;85.20;;;;;;6277783;22;20184;-90
2022/05/11 03:10:06;;;;;;;4.87;1.47;;;19.10;85.80;;;;;;6277741;22;20147;-90
2022/05/11 03:12:32;;;;;;;2.43;1.97;;;19.10;85.90;;;;;;6278110;22;20253;-90
2022/05/11 03:14:59;;;;;;;3.43;1.67;;;19.00;86.20;;;;;;6278163;22;20173;-90
2022/05/11 03:17:25;;;;;;;3.33;1.60;;;19.10;86.50;;;;;;6278408;22;20147;-90
2022/05/11 03:19:51;;;;;;;3.90;1.83;;;19.00;86.80;;;;;;6277176;22;20626;-90
2022/05/11 03:22:17;;;;;;;4.03;1.77;;;19.10;86.80;;;;;;6277883;22;20190;-90
2022/05/11 03:24:44;;;;;;;5.57;2.33;;;19.20;86.60;;;;;;6277344;22;20176;-90
2022/05/11 03:27:10;;;;;;;3.87;1.97;;;19.30;86.30;;;;;;6281053;22;20233;-90
2022/05/11 03:29:35;;;;;;;2.77;1.90;;;19.30;86.20;;;;;;6282924;22;20173;-89
2022/05/11 03:34:46;;;;;;;2.73;1.70;;;18.90;86.80;;;;;;6309992;22;20275;-91
2022/05/11 03:37:15;;;;;;;4.60;1.73;;;18.90;86.80;;;;;;6282976;22;20470;-91
2022/05/11 03:39:41;;;;;;;2.40;1.90;;;19.10;86.70;;;;;;6282356;22;20481;-91
2022/05/11 03:42:11;;;;;;;2.50;1.83;;;18.90;87.00;;;;;;6282381;22;20162;-90
2022/05/11 03:44:37;;;;;;;2.60;1.80;;;18.90;87.40;;;;;;6282546;22;20184;-90
2022/05/11 03:47:03;;;;;;;2.50;1.90;;;18.90;87.70;;;;;;6282386;22;20156;-90
2022/05/11 03:49:30;;;;;;;5.10;1.90;;;18.90;88.20;;;;;;6282295;22;20172;-90
2022/05/11 03:51:56;;;;;;;2.60;2.13;;;18.80;88.30;;;;;;6282548;22;20142;-90
2022/05/11 03:54:23;;;;;;;3.47;2.00;;;18.80;88.90;;;;;;6282094;22;20200;-91
2022/05/11 03:56:49;;;;;;;4.83;1.67;;;18.80;89.00;;;;;;6282905;22;20172;-90
2022/05/11 03:59:14;;;;;;;3.47;1.80;;;18.80;89.10;;;;;;6282351;22;20626;-90
2022/05/11 04:01:40;;;;;;;3.57;1.90;;;18.70;89.90;;;;;;6282188;22;20144;-90
2022/05/11 04:04:06;;;;;;;2.97;1.67;;;18.50;90.40;;;;;;6281865;22;20224;-90
2022/05/11 04:06:32;;;;;;;3.33;2.00;;;18.50;90.60;;;;;;6281952;22;20647;-91
2022/05/11 04:08:58;;;;;;;4.37;1.80;;;18.50;90.80;;;;;;6282703;22;20153;-90
2022/05/11 04:11:25;;;;;;;2.93;1.90;;;18.40;91.10;;;;;;6282116;22;20146;-91
2022/05/11 04:13:51;;;;;;;4.67;2.07;;;18.30;91.50;;;;;;6282062;22;20153;-88
2022/05/11 04:16:17;;;;;;;3.73;1.80;;;18.40;91.50;;;;;;6281910;22;20150;-90
2022/05/11 04:18:43;;;;;;;4.33;2.10;;;18.50;91.60;;;;;;6281778;22;20658;-90
2022/05/11 04:21:09;;;;;;;4.67;2.13;;;18.30;91.90;;;;;;6281694;22;20146;-89
2022/05/11 04:23:35;;;;;;;5.07;2.20;;;18.20;92.20;;;;;;6281989;22;20181;-89
2022/05/11 04:26:01;;;;;;;7.00;1.93;;;18.20;92.30;;;;;;6281835;22;20153;-88
2022/05/11 04:28:27;;;;;;;4.33;1.83;;;18.20;92.50;;;;;;6282166;22;20169;-89
2022/05/11 04:31:01;;;;;;;4.93;2.27;;;18.10;93.00;;;;;;6281694;22;20603;-89
2022/05/11 04:33:28;;;;;;;5.97;2.40;;;18.10;93.10;;;;;;6281464;22;20152;-88
2022/05/11 04:35:53;;;;;;;5.07;2.40;;;18.00;93.60;;;;;;6281814;22;20149;-89
2022/05/11 04:38:19;;;;;;;8.37;2.50;;;18.00;93.80;;;;;;6281832;22;20153;-89
2022/05/11 04:40:45;;;;;;;3.13;2.17;;;18.10;93.80;;;;;;6281690;22;20148;-89
2022/05/11 04:43:11;;;;;;;4.90;2.60;;;18.10;93.90;;;;;;6281902;22;20169;-89
2022/05/11 04:45:42;;;;;;;5.80;2.30;;;18.00;94.10;;;;;;6282293;22;20180;-89
2022/05/11 04:48:08;;;;;;;3.67;1.90;;;17.70;94.60;;;;;;6281716;22;20162;-91
2022/05/11 04:50:38;;;;;;;4.67;2.30;;;17.50;95.50;;;;;;6282056;22;20234;-89
2022/05/11 04:53:04;;;;;;;6.77;2.13;;;17.40;95.90;;;;;;6281748;22;20152;-88
2022/05/11 04:55:30;;;;;;;7.57;2.47;;;17.40;96.50;;;;;;6282097;22;20175;-89
2022/05/11 04:57:55;;;;;;;3.73;2.37;;;17.40;96.70;;;;;;6281874;22;20153;-89
2022/05/11 05:00:21;;;;;;;3.53;2.57;;;17.30;97.20;;;;;;6280738;22;20145;-89
2022/05/11 05:02:47;;;;;;;6.30;2.67;;;17.30;97.40;;;;;;6281012;22;20502;-89
2022/05/11 05:05:13;;;;;;;5.97;2.50;;;17.30;97.50;;;;;;6281930;22;20173;-88
2022/05/11 05:07:41;;;;;;;4.00;2.33;;;17.30;97.80;;;;;;6282097;22;20207;-89
2022/05/11 05:10:09;;;;;;;4.63;2.73;;;17.20;98.20;;;;;;6281471;22;20490;-89
2022/05/11 05:12:35;;;;;;;5.43;2.20;;;17.30;98.30;;;;;;6282482;22;20551;-88
2022/05/11 05:15:01;;;;;;;6.20;2.10;;;17.20;98.50;;;;;;6282173;22;20149;-89
2022/05/11 05:17:27;;;;;;;6.77;2.30;;;17.10;98.80;;;;;;6281986;22;20153;-89
2022/05/11 05:19:53;;;;;;;4.13;2.77;;;17.00;99.30;;;;;;6280567;22;20667;-89
2022/05/11 05:22:19;;;;;;;6.57;2.97;;;17.00;99.60;;;;;;6280979;22;20166;-90
2022/05/11 05:24:45;;;;;;;3.90;2.57;;;17.00;99.80;;;;;;6281353;22;20178;-90
2022/05/11 05:27:12;;;;;;;8.03;3.00;;;17.10;99.70;;;;;;6281691;22;20152;-89
2022/05/11 05:32:22;;;;;;;6.60;2.20;;;17.10;99.80;;;;;;6307854;22;20147;-89
2022/05/11 05:34:48;;;;;;;5.07;2.47;;;17.20;99.50;;;;;;6282129;22;20152;-89
2022/05/11 05:37:15;;;;;;;6.37;2.37;;;17.20;99.40;;;;;;6282277;22;20186;-88
2022/05/11 05:39:42;;;;;;;5.70;2.80;;;17.10;99.50;;;;;;6281457;22;20183;-88
2022/05/11 05:42:09;;;;;;;6.33;2.90;;;17.20;99.60;;;;;;6280958;22;20160;-87
2022/05/11 05:44:37;;;;;;;3.73;2.10;;;17.20;99.50;;;;;;6280628;22;20182;-88
2022/05/11 05:47:07;;;;;;;11.37;2.80;;;17.30;99.00;;;;;;6281340;22;20456;-88
2022/05/11 05:49:32;;;;;;;6.73;2.30;;;17.10;99.40;;;;;;6281302;22;20243;-90
2022/05/11 05:52:01;;;;;;;5.40;1.90;;;17.10;99.40;;;;;;6282525;22;20177;-90
2022/05/11 05:54:29;;;;;;;6.23;2.60;;;17.20;99.30;;;;;;6282076;22;20145;-91
2022/05/11 05:56:54;;;;;;;5.43;2.20;;;17.30;99.00;;;;;;6282661;22;20156;-89
2022/05/11 05:59:20;;;;;;;6.70;2.27;;;17.30;99.40;;;;;;6280580;22;20516;-88
2022/05/11 06:01:46;;;;;;;7.53;2.33;;;17.30;99.90;;;;;;6281602;22;20155;-88
2022/05/11 06:04:12;;;;;;;6.13;2.40;;;17.20;99.90;;;;;;6280951;22;20201;-87
2022/05/11 06:06:38;;;;;;;6.73;2.37;;;17.20;99.70;;;;;;6281197;22;20152;-88
2022/05/11 06:09:04;;;;;;;9.13;2.57;;;17.30;99.60;;;;;;6278216;22;20150;-87
2022/05/11 06:11:30;;;;;;;9.33;2.70;;;17.40;99.80;;;;;;6281568;22;20153;-88
2022/05/11 06:13:56;;;;;;;8.17;2.43;;;17.50;99.40;;;;;;6280891;22;20153;-88
2022/05/11 06:16:22;;;;;;;10.47;2.73;;;17.60;99.00;;;;;;6281207;22;20592;-88
2022/05/11 06:18:48;;;;;;;10.40;2.23;;;17.60;98.80;;;;;;6280454;22;20148;-89
2022/05/11 06:21:16;;;;;;;11.07;2.17;;;17.60;98.10;;;;;;6281247;22;20170;-89
2022/05/11 06:23:42;;;;;;;8.97;2.07;;;17.60;98.00;;;;;;6281147;22;20175;-88
2022/05/11 06:26:09;;;;;;;6.37;1.97;;;17.70;97.30;;;;;;6280694;22;20149;-88
2022/05/11 06:28:36;;;;;;;6.47;1.90;;;17.70;96.20;;;;;;6279640;22;20170;-87
2022/05/11 06:31:03;;;;;;;6.00;1.97;;;17.80;95.50;;;;;;6280097;22;20206;-89
2022/05/11 06:33:28;;;;;;;5.13;1.70;;;17.90;94.20;;;;;;6280261;22;20566;-88
2022/05/11 06:35:54;;;;;;;4.57;1.33;;;17.90;93.30;;;;;;6280735;22;20225;-88
2022/05/11 06:38:20;;;;;;;5.10;1.43;;;17.90;92.90;;;;;;6280529;22;20153;-88
2022/05/11 06:40:45;;;;;;;6.27;1.70;;;17.80;91.80;;;;;;6280668;22;20140;-90
2022/05/11 06:43:12;;;;;;;5.20;1.60;;;17.80;91.90;;;;;;6280894;22;20179;-89
2022/05/11 06:45:38;;;;;;;7.77;1.57;;;17.90;91.30;;;;;;6280679;22;20151;-90
2022/05/11 06:48:04;;;;;;;5.13;1.30;;;17.90;90.70;;;;;;6280460;22;20641;-90
2022/05/11 06:50:30;;;;;;;3.03;1.50;;;17.90;90.30;;;;;;6280852;22;20516;-91
2022/05/11 06:52:57;;;;;;;4.63;1.70;;;18.00;90.00;;;;;;6280900;22;20566;-91
2022/05/11 07:02:06;;;;;;;4.57;1.17;;;18.10;87.50;;;;;;6306460;22;20513;-93
2022/05/11 08:08:31;;;;;;;5.57;1.30;;;19.50;80.10;;;;;;6298370;22;20213;-91
2022/05/11 08:10:57;;;;;;;7.00;1.87;;;19.50;80.20;;;;;;6303352;22;20146;-89
2022/05/11 08:33:27;;;;;;;4.77;1.60;;;19.20;83.50;;;;;;6275393;22;20174;-92
2022/05/11 08:36:06;;;;;;;5.83;1.50;;;19.40;83.60;;;;;;6247984;22;20271;-91
2022/05/11 10:22:04;;;;;;;4.47;2.60;;;21.00;87.90;;;;;;6277580;22;20181;-91
2022/05/11 10:25:01;;;;;;;6.73;2.60;;;21.20;87.40;;;;;;6251176;22;20212;-91
2022/05/11 10:27:41;;;;;;;5.70;2.40;;;21.00;87.30;;;;;;6251145;22;20145;-91
2022/05/11 10:30:23;;;;;;;7.97;2.80;;;20.90;87.90;;;;;;6251258;22;20154;-90
2022/05/11 10:33:19;;;;;;;5.27;2.43;;;20.90;88.00;;;;;;6250486;22;20160;-91
2022/05/11 10:35:50;;;;;;;7.63;2.87;;;21.00;88.30;;;;;;6250427;22;20546;-90
2022/05/11 10:38:41;;;;;;;8.40;2.70;;;20.90;87.70;;;;;;6250362;22;20146;-91
2022/05/11 10:41:33;;;;;;;9.90;2.50;;;21.10;87.60;;;;;;6250504;22;20621;-91
2022/05/11 10:44:29;;;;;;;6.43;2.17;;;21.10;88.00;;;;;;6250265;22;20590;-89
2022/05/11 10:47:34;;;;;;;8.20;2.47;;;21.30;87.80;;;;;;6250110;22;20149;-92
2022/05/11 10:50:36;;;;;;;8.57;2.80;;;21.30;87.00;;;;;;6249870;22;20160;-90
2022/05/11 10:53:38;;;;;;;7.50;3.00;;;21.30;86.50;;;;;;6250086;22;20148;-90
2022/05/11 10:56:30;;;;;;;4.60;2.20;;;21.30;87.20;;;;;;6250601;22;20150;-91
2022/05/11 10:59:19;;;;;;;7.20;2.37;;;21.50;87.20;;;;;;6250365;22;20177;-91
2022/05/11 11:02:07;;;;;;;9.93;2.80;;;21.50;86.60;;;;;;6250108;22;20583;-91
2022/05/11 11:04:54;;;;;;;9.20;2.20;;;21.60;87.20;;;;;;6249721;22;20186;-91
2022/05/11 11:07:35;;;;;;;6.30;2.60;;;21.70;86.70;;;;;;6175022;22;20150;-91
2022/05/11 11:10:29;;;;;;;6.00;2.53;;;21.80;86.10;;;;;;6250065;22;20636;-91
2022/05/11 11:13:26;;;;;;;5.73;2.43;;;21.90;86.00;;;;;;6250736;22;20229;-91
2022/05/11 11:15:53;;;;;;;7.53;2.33;;;22.20;85.20;;;;;;6168199;22;20153;-91
2022/05/11 11:18:28;;;;;;;5.53;2.70;;;22.90;83.10;;;;;;6249531;22;20170;-91
2022/05/11 11:20:58;;;;;;;5.87;2.33;;;23.50;80.60;;;;;;6250985;22;20580;-90
2022/05/11 11:23:24;;;;;;;7.23;2.20;;;24.10;79.40;;;;;;6252071;22;20170;-91
2022/05/11 11:25:51;;;;;;;5.73;2.50;;;25.20;77.50;;;;;;6252313;22;20180;-92
2022/05/11 11:28:34;;;;;;;5.20;2.10;;;26.00;75.30;;;;;;6252066;22;20155;-90
2022/05/11 11:30:59;;;;;;;5.23;2.10;;;26.80;72.40;;;;;;6253031;22;20204;-90
2022/05/11 11:33:30;;;;;;;5.03;2.20;;;27.40;70.90;;;;;;6252540;22;20158;-90
2022/05/11 11:36:26;;;;;;;5.47;2.27;;;27.60;69.90;;;;;;6252825;22;20583;-91
2022/05/11 11:38:53;;;;;;;4.60;2.17;;;28.00;69.40;;;;;;6252397;22;20197;-90
2022/05/11 11:41:28;;;;;;;6.40;2.00;;;28.30;69.20;;;;;;6253970;22;20154;-91
2022/05/11 11:44:37;;;;;;;4.53;2.13;;;28.80;67.50;;;;;;6253992;22;20177;-91
2022/05/11 11:47:26;;;;;;;4.67;2.20;;;29.60;65.40;;;;;;6260091;22;20163;-91
2022/05/11 11:50:02;;;;;;;4.90;2.70;;;29.90;64.90;;;;;;6259694;22;20146;-90
2022/05/11 11:53:04;;;;;;;7.03;2.87;;;29.70;64.70;;;;;;6253788;22;20154;-91
2022/05/11 11:55:30;;;;;;;2.13;1.60;;;29.50;65.90;;;;;;6245629;22;20150;-90
2022/05/11 11:58:11;;;;;;;5.87;2.20;;;29.50;65.40;;;;;;6252352;22;20595;-91
2022/05/11 12:00:46;;;;;;;6.37;2.23;;;29.70;64.70;;;;;;6251906;22;20150;-90
2022/05/11 12:03:27;;;;;;;8.20;2.27;;;30.40;64.20;;;;;;6251988;22;20265;-90
2022/05/11 12:15:01;;;;;;;8.20;2.33;;;30.10;64.10;;;;;;6251222;22;20579;-90
2022/05/11 12:17:08;;;;;;;6.28;2.08;;;30.50;62.30;;;;;;6278518;22;20197;-92
2022/05/11 12:19:38;;;;;;;4.67;2.00;;;30.40;62.80;;;;;;6251600;22;20162;-90
2022/05/11 12:22:14;;;;;;;7.00;2.23;;;30.50;62.30;;;;;;6251423;22;20224;-90
2022/05/11 12:24:47;;;;;;;7.97;1.93;;;30.00;63.00;;;;;;6251840;22;20178;-90
2022/05/11 12:27:26;;;;;;;5.27;2.17;;;30.20;63.10;;;;;;6251531;22;20200;-92
2022/05/11 12:29:59;;;;;;;6.37;2.47;;;30.60;62.00;;;;;;6251643;22;20238;-92
2022/05/11 12:32:35;;;;;;;5.50;2.20;;;30.30;62.30;;;;;;6251518;22;20181;-92
2022/05/11 12:35:09;;;;;;;5.47;1.87;;;30.70;61.40;;;;;;6251336;22;20171;-91
2022/05/11 12:37:37;;;;;;;7.60;1.93;;;31.10;61.20;;;;;;6252069;22;20185;-92
2022/05/11 12:40:17;;;;;;;5.80;2.17;;;31.30;60.20;;;;;;6251713;22;20225;-92
2022/05/11 12:42:46;;;;;;;8.30;2.03;;;30.30;61.50;;;;;;6251262;22;20149;-92
2022/05/11 12:45:20;;;;;;;5.03;1.70;;;30.30;61.50;;;;;;6250968;22;20536;-91
2022/05/11 12:47:55;;;;;;;5.77;2.07;;;30.40;61.70;;;;;;6251596;22;20157;-90
2022/05/11 12:50:37;;;;;;;5.33;1.87;;;31.10;61.30;;;;;;6251759;22;20154;-89
2022/05/11 12:53:22;;;;;;;5.32;2.00;;;31.60;60.30;;;;;;6251468;22;20229;-91
2022/05/11 12:55:52;;;;;;;7.60;2.55;;;32.30;59.70;;;;;;6251153;22;20237;-91
2022/05/11 12:58:27;;;;;;;6.85;2.40;;;32.60;59.20;;;;;;6253613;22;20143;-90
2022/05/11 13:01:00;;;;;;;9.43;2.20;;;32.90;58.80;;;;;;6255841;22;20209;-90
2022/05/11 13:03:29;;;;;;;5.38;2.25;;;33.30;58.40;;;;;;6254745;22;20181;-91
2022/05/11 13:05:59;;;;;;;5.85;1.95;;;33.60;58.10;;;;;;6256046;22;20150;-92
2022/05/11 13:08:28;;;;;;;8.38;2.15;;;33.60;57.70;;;;;;6256611;22;20147;-90
2022/05/11 13:10:56;;;;;;;5.35;1.95;;;32.90;58.10;;;;;;6255847;22;20147;-90
2022/05/11 13:13:29;;;;;;;4.83;1.97;;;31.40;59.20;;;;;;6256109;22;20149;-92
2022/05/11 13:16:22;;;;;;;6.53;2.27;;;30.30;61.20;;;;;;6254736;22;20151;-90
2022/05/11 13:18:48;;;;;;;5.00;2.13;;;30.10;61.50;;;;;;6253501;22;20201;-89
2022/05/11 13:21:26;;;;;;;5.47;2.27;;;30.30;61.10;;;;;;6254043;22;20175;-89
2022/05/11 13:23:52;;;;;;;4.87;1.80;;;30.90;60.00;;;;;;6256237;22;20260;-90
2022/05/11 13:26:30;;;;;;;5.32;1.65;;;31.70;59.80;;;;;;6250986;22;20481;-90
2022/05/11 13:29:00;;;;;;;3.85;2.25;;;31.90;59.40;;;;;;6250514;22;20200;-90
2022/05/11 13:31:29;;;;;;;3.77;1.90;;;32.10;58.50;;;;;;6250932;22;20572;-89
2022/05/11 13:33:57;;;;;;;3.50;2.07;;;30.70;59.90;;;;;;6250916;22;20154;-89
2022/05/11 13:36:41;;;;;;;3.87;1.97;;;30.60;60.80;;;;;;6250281;22;20153;-89
2022/05/11 13:39:17;;;;;;;2.92;1.65;;;31.60;59.60;;;;;;6250986;22;20151;-90
2022/05/11 13:41:47;;;;;;;4.35;2.25;;;32.60;58.10;;;;;;6250187;22;20185;-90
2022/05/11 13:44:35;;;;;;;2.70;1.60;;;32.80;57.70;;;;;;6249614;22;20182;-88
2022/05/11 13:49:48;;;;;;;7.82;2.28;;;32.70;58.10;;;;;;6277442;22;20157;-89
2022/05/11 13:52:37;;;;;;;7.20;2.27;;;31.50;59.30;;;;;;6250313;22;20174;-89
2022/05/11 13:55:04;;;;;;;4.60;2.13;;;30.70;59.80;;;;;;6251062;22;20225;-89
2022/05/11 13:57:35;;;;;;;8.13;2.17;;;30.80;60.10;;;;;;6250313;22;20633;-89
2022/05/11 14:00:16;;;;;;;8.27;2.00;;;30.70;60.20;;;;;;6250536;22;20545;-89
2022/05/11 14:02:49;;;;;;;5.37;2.23;;;30.10;61.00;;;;;;6250504;22;20146;-89
2022/05/11 14:05:18;;;;;;;5.13;2.23;;;29.20;62.20;;;;;;6250549;22;20166;-89
2022/05/11 14:07:43;;;;;;;3.63;2.20;;;29.40;62.30;;;;;;6250896;22;20567;-89
2022/05/11 14:10:09;;;;;;;6.07;1.90;;;29.10;62.70;;;;;;6250489;22;20157;-88
2022/05/11 14:12:35;;;;;;;5.10;1.90;;;29.10;62.80;;;;;;6252150;22;20146;-89
2022/05/11 14:15:03;;;;;;;6.87;1.77;;;29.60;62.40;;;;;;6251892;22;20162;-89
2022/05/11 14:17:35;;;;;;;6.80;1.97;;;30.70;60.90;;;;;;6250963;22;20172;-90
2022/05/11 14:20:04;;;;;;;6.70;2.13;;;30.20;60.80;;;;;;6250276;22;20162;-89
2022/05/11 14:22:35;;;;;;;4.20;2.20;;;30.50;60.40;;;;;;6250020;22;20155;-90
2022/05/11 14:25:01;;;;;;;3.27;1.90;;;31.40;60.20;;;;;;6250212;22;20277;-89
2022/05/11 14:27:29;;;;;;;5.35;2.00;;;32.30;59.10;;;;;;6249927;22;20170;-89
2022/05/11 14:29:57;;;;;;;8.23;2.17;;;33.10;58.30;;;;;;6250625;22;20583;-89
2022/05/11 14:32:32;;;;;;;2.80;1.52;;;33.90;56.80;;;;;;6250076;22;20143;-90
2022/05/11 14:34:58;;;;;;;3.33;1.75;;;33.70;56.70;;;;;;6250038;22;20176;-89
2022/05/11 14:37:29;;;;;;;3.72;1.70;;;32.80;57.00;;;;;;6249921;22;20172;-89
2022/05/11 14:39:59;;;;;;;4.97;1.50;;;31.90;57.90;;;;;;6250234;22;20150;-89
2022/05/11 14:42:30;;;;;;;2.85;1.85;;;32.30;58.00;;;;;;6250160;22;20151;-90
2022/05/11 14:44:57;;;;;;;6.40;2.00;;;32.90;57.20;;;;;;6250391;22;20682;-89
2022/05/11 14:47:23;;;;;;;5.85;1.75;;;32.90;57.50;;;;;;6250242;22;20463;-89
2022/05/11 14:49:49;;;;;;;3.75;1.98;;;32.10;57.60;;;;;;6250150;22;20160;-89
2022/05/11 14:52:16;;;;;;;6.20;1.53;;;31.70;58.20;;;;;;6250205;22;20208;-89
2022/05/11 14:54:41;;;;;;;5.77;1.90;;;31.30;58.70;;;;;;6250212;22;20441;-89
2022/05/11 15:02:36;;;;;;;4.70;1.80;;;32.70;57.40;;;;;;6276922;22;20150;-89
2022/05/11 15:05:07;;;;;;;3.33;1.67;;;32.10;58.10;;;;;;6249764;22;20182;-90
2022/05/11 15:07:34;;;;;;;5.53;1.63;;;31.70;58.30;;;;;;6249984;22;20142;-90
2022/05/11 15:10:00;;;;;;;3.17;1.48;;;32.00;58.10;;;;;;6249844;22;20150;-90
2022/05/11 15:15:11;;;;;;;5.83;1.50;;;31.30;58.30;;;;;;6276857;22;20145;-90
2022/05/11 15:17:38;;;;;;;3.13;1.50;;;30.80;59.20;;;;;;6250228;22;20150;-90
2022/05/11 15:20:06;;;;;;;7.13;1.80;;;30.50;59.70;;;;;;6250234;22;20171;-90
2022/05/11 15:22:35;;;;;;;5.13;1.50;;;29.80;60.50;;;;;;6250186;22;20556;-90
2022/05/11 15:25:02;;;;;;;3.87;1.70;;;29.50;61.10;;;;;;6249770;22;20221;-90
2022/05/11 15:27:31;;;;;;;3.43;1.27;;;29.50;61.10;;;;;;6250086;22;20196;-90
2022/05/11 15:29:59;;;;;;;3.67;1.63;;;28.70;61.80;;;;;;6249956;22;20142;-91
2022/05/11 15:32:27;;;;;;;6.20;1.60;;;28.40;62.10;;;;;;6250449;22;20182;-91
2022/05/11 15:34:58;;;;;;;3.97;1.60;;;28.10;62.60;;;;;;6250297;22;20147;-90
2022/05/11 15:37:24;;;;;;;2.90;1.40;;;28.80;61.60;;;;;;6250176;22;20142;-91
2022/05/11 15:40:01;;;;;;;2.07;1.20;;;29.70;60.60;;;;;;6250153;22;20151;-91
2022/05/11 15:42:29;;;;;;;3.63;1.40;;;30.40;59.50;;;;;;6248938;22;20146;-90
2022/05/11 15:44:56;;;;;;;4.73;1.33;;;30.60;59.10;;;;;;6250248;22;20610;-90
2022/05/11 15:47:34;;;;;;;3.90;1.60;;;30.90;58.80;;;;;;6249951;22;20154;-90
2022/05/11 15:50:05;;;;;;;3.00;1.30;;;30.80;58.50;;;;;;6250434;22;20155;-91
2022/05/11 15:52:33;;;;;;;4.73;1.70;;;30.50;58.80;;;;;;6250292;22;20178;-91
2022/05/11 15:55:01;;;;;;;7.30;1.57;;;29.90;59.80;;;;;;6250101;22;20154;-91
2022/05/11 15:57:27;;;;;;;5.37;1.30;;;30.10;59.90;;;;;;6250361;22;20146;-90
2022/05/11 15:59:53;;;;;;;8.50;1.87;;;30.00;59.30;;;;;;6250383;22;20157;-91
2022/05/11 16:02:22;;;;;;;6.20;1.50;;;29.40;59.60;;;;;;6249905;22;20590;-90
2022/05/11 16:04:48;;;;;;;1.70;1.10;;;29.60;59.60;;;;;;6249831;22;20828;-90
2022/05/11 16:07:16;;;;;;;5.13;1.87;;;29.80;59.40;;;;;;6250809;22;20225;-90
2022/05/11 16:09:42;;;;;;;6.17;1.70;;;29.70;59.70;;;;;;6251660;22;20146;-91
2022/05/11 16:12:11;;;;;;;4.40;1.50;;;29.40;60.00;;;;;;6251996;22;20174;-91
2022/05/11 16:14:37;;;;;;;4.10;1.60;;;29.00;60.20;;;;;;6252046;22;20150;-91
2022/05/11 16:19:50;;;;;;;7.43;2.00;;;28.90;60.70;;;;;;6251887;22;20150;-90
2022/05/11 16:19:50;;;;;;;8.20;1.90;;;29.00;60.00;;;;;;6278042;22;20151;-90
2022/05/11 16:22:17;;;;;;;4.80;1.90;;;28.50;60.00;;;;;;6251674;22;20625;-91
2022/05/11 16:24:43;;;;;;;6.40;1.80;;;28.00;61.00;;;;;;6251919;22;20490;-90
2022/05/11 16:27:17;;;;;;;7.80;2.00;;;27.70;61.80;;;;;;6252140;22;20176;-91
2022/05/11 16:29:45;;;;;;;3.83;1.60;;;28.10;61.50;;;;;;6252270;22;20160;-91
2022/05/11 16:32:25;;;;;;;3.33;1.70;;;28.50;60.90;;;;;;6251277;22;20151;-91
2022/05/11 16:35:10;;;;;;;;;;;;;;;;;;;;;
2022/05/11 16:37:55;;;;;;;5.00;1.70;;;29.40;60.00;;;;;;6278394;22;20230;-91
2022/05/11 16:40:22;;;;;;;6.37;1.97;;;29.30;60.00;;;;;;6252027;22;20150;-91
2022/05/11 16:42:50;;;;;;;3.23;1.90;;;28.60;60.50;;;;;;6252177;22;20154;-91
2022/05/11 16:45:19;;;;;;;3.87;1.70;;;28.20;61.40;;;;;;6251595;22;20319;-92
2022/05/11 16:47:52;;;;;;;3.60;1.83;;;27.90;61.80;;;;;;6251999;22;20155;-92